sensor_id;sensor_type;location;lat;lon;timestamp;pressure;altitude;pressure_sealevel;temperature;humidity
58534;BME280;44109;52.398;7.024;2023-02-03T00:01:36;102004.25;;;8.31;100.00
58534;BME280;44109;52.398;7.024;2023-02-03T00:04:04;102016.13;;;8.49;100.00
58534;BME280;44109;52.398;7.024;2023-02-03T00:06:33;101997.44;;;8.46;100.00
58534;BME280;44109;52.398;7.024;2023-02-03T00:09:01;102017.28;;;8.57;100.00
58534;BME280;44109;52.398;7.024;2023-02-03T00:11:29;102016.97;;;8.50;100.00
58534;BME280;44109;52.398;7.024;2023-02-03T00:13:57;102019.88;;;8.62;100.00
58534;BME280;44109;52.398;7.024;2023-02-03T00:16:25;102024.59;;;8.61;100.00
58534;BME280;44109;52.398;7.024;2023-02-03T00:18:52;102021.19;;;8.56;100.00
58534;BME280;44109;52.398;7.024;2023-02-03T00:21:20;101996.78;;;8.49;100.00
58534;BME280;44109;52.398;7.024;2023-02-03T00:23:49;102025.41;;;8.62;100.00
58534;BME280;44109;52.398;7.024;2023-02-03T00:26:16;102034.50;;;8.54;100.00
58534;BME280;44109;52.398;7.024;2023-02-03T00:28:44;102030.94;;;8.62;100.00
58534;BME280;44109;52.398;7.024;2023-02-03T00:31:16;102028.00;;;8.67;100.00
58534;BME280;44109;52.398;7.024;2023-02-03T00:33:44;102017.63;;;8.47;100.00
58534;BME280;44109;52.398;7.024;2023-02-03T00:36:12;102045.44;;;8.59;100.00
58534;BME280;44109;52.398;7.024;2023-02-03T00:38:40;102041.88;;;8.58;100.00
58534;BME280;44109;52.398;7.024;2023-02-03T00:41:09;102061.53;;;8.57;100.00
58534;BME280;44109;52.398;7.024;2023-02-03T00:43:37;102046.88;;;8.65;100.00
58534;BME280;44109;52.398;7.024;2023-02-03T00:46:05;102039.41;;;8.57;100.00
58534;BME280;44109;52.398;7.024;2023-02-03T00:48:32;102033.22;;;8.60;100.00
58534;BME280;44109;52.398;7.024;2023-02-03T00:51:00;102029.16;;;8.57;100.00
58534;BME280;44109;52.398;7.024;2023-02-03T00:53:27;102019.22;;;8.65;100.00
58534;BME280;44109;52.398;7.024;2023-02-03T00:55:55;102035.47;;;8.75;100.00
58534;BME280;44109;52.398;7.024;2023-02-03T00:58:24;102034.69;;;8.66;100.00
58534;BME280;44109;52.398;7.024;2023-02-03T01:00:53;102029.47;;;8.64;100.00
58534;BME280;44109;52.398;7.024;2023-02-03T01:03:22;102037.28;;;8.62;100.00
58534;BME280;44109;52.398;7.024;2023-02-03T01:05:50;102040.72;;;8.59;100.00
58534;BME280;44109;52.398;7.024;2023-02-03T01:08:17;102029.94;;;8.75;100.00
58534;BME280;44109;52.398;7.024;2023-02-03T01:10:45;102033.38;;;8.72;100.00
58534;BME280;44109;52.398;7.024;2023-02-03T01:13:13;102030.44;;;8.77;100.00
58534;BME280;44109;52.398;7.024;2023-02-03T01:15:46;102010.41;;;8.80;100.00
58534;BME280;44109;52.398;7.024;2023-02-03T01:18:14;102026.03;;;8.85;100.00
58534;BME280;44109;52.398;7.024;2023-02-03T01:20:41;102016.00;;;8.63;100.00
58534;BME280;44109;52.398;7.024;2023-02-03T01:23:09;101998.41;;;8.59;100.00
58534;BME280;44109;52.398;7.024;2023-02-03T01:25:36;102010.75;;;8.61;100.00
58534;BME280;44109;52.398;7.024;2023-02-03T01:28:04;102011.22;;;8.81;100.00
58534;BME280;44109;52.398;7.024;2023-02-03T01:30:32;102007.00;;;8.75;100.00
58534;BME280;44109;52.398;7.024;2023-02-03T01:33:01;102018.06;;;8.75;100.00
58534;BME280;44109;52.398;7.024;2023-02-03T01:35:29;102005.19;;;8.87;100.00
58534;BME280;44109;52.398;7.024;2023-02-03T01:37:57;101989.06;;;8.89;100.00
58534;BME280;44109;52.398;7.024;2023-02-03T01:40:25;101981.94;;;8.80;100.00
58534;BME280;44109;52.398;7.024;2023-02-03T01:42:53;101959.13;;;8.92;100.00
58534;BME280;44109;52.398;7.024;2023-02-03T01:45:20;101966.47;;;8.79;100.00
58534;BME280;44109;52.398;7.024;2023-02-03T01:47:49;101963.38;;;8.80;100.00
58534;BME280;44109;52.398;7.024;2023-02-03T01:50:24;101957.00;;;8.88;100.00
58534;BME280;44109;52.398;7.024;2023-02-03T01:52:58;101954.44;;;8.75;100.00
58534;BME280;44109;52.398;7.024;2023-02-03T01:55:33;101940.91;;;8.91;100.00
58534;BME280;44109;52.398;7.024;2023-02-03T01:58:07;101937.81;;;8.92;100.00
58534;BME280;44109;52.398;7.024;2023-02-03T02:00:37;101938.59;;;8.93;100.00
58534;BME280;44109;52.398;7.024;2023-02-03T02:03:06;101928.69;;;8.92;100.00
58534;BME280;44109;52.398;7.024;2023-02-03T02:05:40;101927.22;;;8.85;100.00
58534;BME280;44109;52.398;7.024;2023-02-03T02:08:14;101927.28;;;8.77;100.00
58534;BME280;44109;52.398;7.024;2023-02-03T02:10:44;101939.75;;;8.92;100.00
58534;BME280;44109;52.398;7.024;2023-02-03T02:13:13;101972.47;;;8.89;100.00
58534;BME280;44109;52.398;7.024;2023-02-03T02:15:49;101958.56;;;9.07;100.00
58534;BME280;44109;52.398;7.024;2023-02-03T02:18:39;101962.19;;;8.99;100.00
58534;BME280;44109;52.398;7.024;2023-02-03T02:21:23;101950.28;;;9.07;100.00
58534;BME280;44109;52.398;7.024;2023-02-03T02:24:40;101947.50;;;9.07;100.00
58534;BME280;44109;52.398;7.024;2023-02-03T02:27:38;101939.59;;;8.88;100.00
58534;BME280;44109;52.398;7.024;2023-02-03T02:30:37;101952.44;;;8.93;100.00
58534;BME280;44109;52.398;7.024;2023-02-03T02:33:35;101962.56;;;8.80;100.00
58534;BME280;44109;52.398;7.024;2023-02-03T02:36:18;101984.69;;;8.88;100.00
58534;BME280;44109;52.398;7.024;2023-02-03T02:38:56;101975.22;;;8.89;100.00
58534;BME280;44109;52.398;7.024;2023-02-03T02:41:38;101962.69;;;9.01;100.00
58534;BME280;44109;52.398;7.024;2023-02-03T02:44:15;101967.56;;;9.04;100.00
58534;BME280;44109;52.398;7.024;2023-02-03T02:46:51;101956.50;;;9.04;100.00
58534;BME280;44109;52.398;7.024;2023-02-03T02:49:29;101921.78;;;8.68;100.00
58534;BME280;44109;52.398;7.024;2023-02-03T02:52:02;101932.41;;;8.96;100.00
58534;BME280;44109;52.398;7.024;2023-02-03T02:54:32;101933.53;;;8.95;100.00
58534;BME280;44109;52.398;7.024;2023-02-03T02:57:09;101931.94;;;8.85;100.00
58534;BME280;44109;52.398;7.024;2023-02-03T02:59:39;101926.72;;;8.92;100.00
58534;BME280;44109;52.398;7.024;2023-02-03T03:02:09;101921.53;;;8.91;100.00
58534;BME280;44109;52.398;7.024;2023-02-03T03:04:39;101899.75;;;8.72;100.00
58534;BME280;44109;52.398;7.024;2023-02-03T03:07:14;101933.84;;;9.02;100.00
58534;BME280;44109;52.398;7.024;2023-02-03T03:09:47;101930.00;;;8.85;100.00
58534;BME280;44109;52.398;7.024;2023-02-03T03:12:20;101930.97;;;8.89;100.00
58534;BME280;44109;52.398;7.024;2023-02-03T03:14:54;101929.84;;;8.91;100.00
58534;BME280;44109;52.398;7.024;2023-02-03T03:17:29;101922.66;;;8.89;100.00
58534;BME280;44109;52.398;7.024;2023-02-03T03:20:04;101957.16;;;9.01;100.00
58534;BME280;44109;52.398;7.024;2023-02-03T03:22:40;101914.50;;;8.93;100.00
58534;BME280;44109;52.398;7.024;2023-02-03T03:25:13;101920.84;;;8.94;100.00
58534;BME280;44109;52.398;7.024;2023-02-03T03:27:48;101926.22;;;8.90;100.00
58534;BME280;44109;52.398;7.024;2023-02-03T03:30:25;101920.03;;;8.93;100.00
58534;BME280;44109;52.398;7.024;2023-02-03T03:32:58;101916.81;;;8.91;100.00
58534;BME280;44109;52.398;7.024;2023-02-03T03:35:32;101918.09;;;8.94;100.00
58534;BME280;44109;52.398;7.024;2023-02-03T03:38:08;101911.41;;;8.95;100.00
58534;BME280;44109;52.398;7.024;2023-02-03T03:40:45;101900.41;;;8.86;100.00
58534;BME280;44109;52.398;7.024;2023-02-03T03:43:20;101908.81;;;8.89;100.00
58534;BME280;44109;52.398;7.024;2023-02-03T03:45:56;101908.94;;;9.02;100.00
58534;BME280;44109;52.398;7.024;2023-02-03T03:48:30;101890.44;;;8.85;100.00
58534;BME280;44109;52.398;7.024;2023-02-03T03:51:08;101884.09;;;8.84;100.00
58534;BME280;44109;52.398;7.024;2023-02-03T03:53:42;101903.16;;;8.86;100.00
58534;BME280;44109;52.398;7.024;2023-02-03T03:56:16;101904.16;;;8.81;100.00
58534;BME280;44109;52.398;7.024;2023-02-03T03:58:49;101906.72;;;8.95;100.00
58534;BME280;44109;52.398;7.024;2023-02-03T04:01:20;101903.97;;;8.86;100.00
58534;BME280;44109;52.398;7.024;2023-02-03T04:03:53;101899.22;;;8.96;100.00
58534;BME280;44109;52.398;7.024;2023-02-03T04:06:27;101910.91;;;9.01;100.00
58534;BME280;44109;52.398;7.024;2023-02-03T04:08:55;101914.47;;;9.02;100.00
58534;BME280;44109;52.398;7.024;2023-02-03T04:11:22;101909.75;;;9.02;100.00
58534;BME280;44109;52.398;7.024;2023-02-03T04:14:07;101910.47;;;8.91;100.00
58534;BME280;44109;52.398;7.024;2023-02-03T04:16:35;101909.59;;;8.99;100.00
58534;BME280;44109;52.398;7.024;2023-02-03T04:19:02;101918.59;;;8.96;100.00
58534;BME280;44109;52.398;7.024;2023-02-03T04:21:31;101917.88;;;9.07;100.00
58534;BME280;44109;52.398;7.024;2023-02-03T04:23:59;101905.72;;;9.00;100.00
58534;BME280;44109;52.398;7.024;2023-02-03T04:26:27;101894.81;;;8.95;100.00
58534;BME280;44109;52.398;7.024;2023-02-03T04:28:54;101899.84;;;9.01;100.00
58534;BME280;44109;52.398;7.024;2023-02-03T04:31:22;101899.31;;;9.08;100.00
58534;BME280;44109;52.398;7.024;2023-02-03T04:33:49;101907.19;;;8.88;100.00
58534;BME280;44109;52.398;7.024;2023-02-03T04:36:17;101902.09;;;8.99;100.00
58534;BME280;44109;52.398;7.024;2023-02-03T04:38:47;101886.47;;;9.03;100.00
58534;BME280;44109;52.398;7.024;2023-02-03T04:41:15;101883.06;;;8.98;100.00
58534;BME280;44109;52.398;7.024;2023-02-03T04:43:43;101884.69;;;8.99;100.00
58534;BME280;44109;52.398;7.024;2023-02-03T04:46:11;101884.84;;;9.02;100.00
58534;BME280;44109;52.398;7.024;2023-02-03T04:48:39;101883.22;;;9.01;100.00
58534;BME280;44109;52.398;7.024;2023-02-03T04:51:07;101878.16;;;9.03;100.00
58534;BME280;44109;52.398;7.024;2023-02-03T04:53:35;101876.91;;;8.92;100.00
58534;BME280;44109;52.398;7.024;2023-02-03T04:56:05;101866.81;;;8.96;100.00
58534;BME280;44109;52.398;7.024;2023-02-03T04:58:32;101877.19;;;8.99;100.00
58534;BME280;44109;52.398;7.024;2023-02-03T05:01:05;101889.75;;;8.97;100.00
58534;BME280;44109;52.398;7.024;2023-02-03T05:03:34;101889.06;;;9.08;100.00
58534;BME280;44109;52.398;7.024;2023-02-03T05:06:02;101881.94;;;8.99;100.00
58534;BME280;44109;52.398;7.024;2023-02-03T05:08:30;101885.47;;;9.08;100.00
58534;BME280;44109;52.398;7.024;2023-02-03T05:10:58;101884.31;;;9.18;100.00
58534;BME280;44109;52.398;7.024;2023-02-03T05:13:27;101882.34;;;9.18;100.00
58534;BME280;44109;52.398;7.024;2023-02-03T05:15:55;101871.63;;;9.08;100.00
58534;BME280;44109;52.398;7.024;2023-02-03T05:18:23;101878.13;;;9.12;100.00
58534;BME280;44109;52.398;7.024;2023-02-03T05:20:50;101884.34;;;9.09;100.00
58534;BME280;44109;52.398;7.024;2023-02-03T05:23:18;101875.50;;;9.15;100.00
58534;BME280;44109;52.398;7.024;2023-02-03T05:25:45;101877.94;;;9.17;100.00
58534;BME280;44109;52.398;7.024;2023-02-03T05:28:13;101877.75;;;9.22;100.00
58534;BME280;44109;52.398;7.024;2023-02-03T05:30:42;101875.47;;;9.24;100.00
58534;BME280;44109;52.398;7.024;2023-02-03T05:33:10;101881.84;;;9.16;100.00
58534;BME280;44109;52.398;7.024;2023-02-03T05:35:37;101884.72;;;9.28;100.00
58534;BME280;44109;52.398;7.024;2023-02-03T05:38:05;101881.69;;;9.12;100.00
58534;BME280;44109;52.398;7.024;2023-02-03T05:40:33;101874.78;;;9.27;100.00
58534;BME280;44109;52.398;7.024;2023-02-03T05:43:18;101887.34;;;9.25;100.00
58534;BME280;44109;52.398;7.024;2023-02-03T05:45:47;101878.97;;;9.33;100.00
58534;BME280;44109;52.398;7.024;2023-02-03T05:48:15;101879.94;;;9.37;100.00
58534;BME280;44109;52.398;7.024;2023-02-03T05:50:43;101872.22;;;9.22;100.00
58534;BME280;44109;52.398;7.024;2023-02-03T05:53:11;101875.69;;;9.10;100.00
58534;BME280;44109;52.398;7.024;2023-02-03T05:55:38;101871.53;;;9.25;100.00
58534;BME280;44109;52.398;7.024;2023-02-03T05:58:06;101870.81;;;9.07;100.00
58534;BME280;44109;52.398;7.024;2023-02-03T06:00:33;101869.50;;;9.13;100.00
58534;BME280;44109;52.398;7.024;2023-02-03T06:03:03;101881.13;;;8.98;100.00
58534;BME280;44109;52.398;7.024;2023-02-03T06:05:32;101875.03;;;9.13;100.00
58534;BME280;44109;52.398;7.024;2023-02-03T06:08:03;101866.53;;;9.19;100.00
58534;BME280;44109;52.398;7.024;2023-02-03T06:10:30;101872.47;;;9.08;100.00
58534;BME280;44109;52.398;7.024;2023-02-03T06:12:58;101865.72;;;9.18;100.00
58534;BME280;44109;52.398;7.024;2023-02-03T06:15:26;101867.81;;;9.21;100.00
58534;BME280;44109;52.398;7.024;2023-02-03T06:17:54;101874.88;;;9.10;100.00
58534;BME280;44109;52.398;7.024;2023-02-03T06:20:23;101872.78;;;9.07;100.00
58534;BME280;44109;52.398;7.024;2023-02-03T06:22:50;101881.38;;;9.14;100.00
58534;BME280;44109;52.398;7.024;2023-02-03T06:25:18;101880.28;;;9.06;100.00
58534;BME280;44109;52.398;7.024;2023-02-03T06:27:45;101878.13;;;9.12;100.00
58534;BME280;44109;52.398;7.024;2023-02-03T06:30:13;101889.06;;;9.08;100.00
58534;BME280;44109;52.398;7.024;2023-02-03T06:32:41;101884.41;;;9.21;100.00
58534;BME280;44109;52.398;7.024;2023-02-03T06:35:08;101884.38;;;9.30;100.00
58534;BME280;44109;52.398;7.024;2023-02-03T06:37:37;101887.88;;;9.18;100.00
58534;BME280;44109;52.398;7.024;2023-02-03T06:40:06;101895.41;;;9.09;100.00
58534;BME280;44109;52.398;7.024;2023-02-03T06:42:35;101897.88;;;9.02;100.00
58534;BME280;44109;52.398;7.024;2023-02-03T06:45:04;101915.91;;;9.08;100.00
58534;BME280;44109;52.398;7.024;2023-02-03T06:47:32;101914.03;;;9.29;100.00
58534;BME280;44109;52.398;7.024;2023-02-03T06:50:00;101905.53;;;9.34;100.00
58534;BME280;44109;52.398;7.024;2023-02-03T06:52:27;101892.03;;;9.33;100.00
58534;BME280;44109;52.398;7.024;2023-02-03T06:54:56;101890.06;;;9.33;100.00
58534;BME280;44109;52.398;7.024;2023-02-03T06:57:24;101896.50;;;9.17;100.00
58534;BME280;44109;52.398;7.024;2023-02-03T06:59:52;101906.09;;;9.19;100.00
58534;BME280;44109;52.398;7.024;2023-02-03T07:02:20;101895.41;;;9.38;100.00
58534;BME280;44109;52.398;7.024;2023-02-03T07:04:47;101894.84;;;9.24;100.00
58534;BME280;44109;52.398;7.024;2023-02-03T07:07:15;101894.22;;;9.19;100.00
58534;BME280;44109;52.398;7.024;2023-02-03T07:09:43;101888.91;;;9.34;100.00
58534;BME280;44109;52.398;7.024;2023-02-03T07:12:12;101883.34;;;9.13;100.00
58534;BME280;44109;52.398;7.024;2023-02-03T07:14:40;101893.88;;;9.20;100.00
58534;BME280;44109;52.398;7.024;2023-02-03T07:17:07;101889.75;;;9.26;100.00
58534;BME280;44109;52.398;7.024;2023-02-03T07:19:35;101895.69;;;9.16;100.00
58534;BME280;44109;52.398;7.024;2023-02-03T07:22:03;101885.69;;;9.32;100.00
58534;BME280;44109;52.398;7.024;2023-02-03T07:24:30;101904.81;;;9.17;100.00
58534;BME280;44109;52.398;7.024;2023-02-03T07:26:58;101896.94;;;9.27;100.00
58534;BME280;44109;52.398;7.024;2023-02-03T07:29:27;101895.84;;;9.20;100.00
58534;BME280;44109;52.398;7.024;2023-02-03T07:31:54;101897.75;;;9.28;100.00
58534;BME280;44109;52.398;7.024;2023-02-03T07:34:22;101896.91;;;9.36;100.00
58534;BME280;44109;52.398;7.024;2023-02-03T07:36:50;101865.69;;;8.88;100.00
58534;BME280;44109;52.398;7.024;2023-02-03T07:39:17;101914.41;;;9.19;100.00
58534;BME280;44109;52.398;7.024;2023-02-03T07:41:45;101901.53;;;9.23;100.00
58534;BME280;44109;52.398;7.024;2023-02-03T07:44:12;101932.44;;;9.25;100.00
58534;BME280;44109;52.398;7.024;2023-02-03T07:46:41;101928.53;;;9.26;100.00
58534;BME280;44109;52.398;7.024;2023-02-03T07:49:10;101922.56;;;9.15;100.00
58534;BME280;44109;52.398;7.024;2023-02-03T07:51:37;101919.63;;;9.12;100.00
58534;BME280;44109;52.398;7.024;2023-02-03T07:54:06;101923.91;;;9.09;100.00
58534;BME280;44109;52.398;7.024;2023-02-03T07:56:33;101920.78;;;9.11;100.00
58534;BME280;44109;52.398;7.024;2023-02-03T07:59:01;101918.56;;;9.34;100.00
58534;BME280;44109;52.398;7.024;2023-02-03T08:01:29;101913.41;;;9.24;100.00
58534;BME280;44109;52.398;7.024;2023-02-03T08:04:00;101927.28;;;9.15;100.00
58534;BME280;44109;52.398;7.024;2023-02-03T08:06:30;101893.34;;;8.97;100.00
58534;BME280;44109;52.398;7.024;2023-02-03T08:08:58;101914.75;;;9.18;100.00
58534;BME280;44109;52.398;7.024;2023-02-03T08:11:25;101916.41;;;9.39;100.00
58534;BME280;44109;52.398;7.024;2023-02-03T08:13:53;101913.03;;;9.34;100.00
58534;BME280;44109;52.398;7.024;2023-02-03T08:16:21;101908.47;;;9.29;100.00
58534;BME280;44109;52.398;7.024;2023-02-03T08:18:48;101925.13;;;9.21;100.00
58534;BME280;44109;52.398;7.024;2023-02-03T08:21:17;101914.59;;;9.14;100.00
58534;BME280;44109;52.398;7.024;2023-02-03T08:23:45;101930.06;;;9.15;100.00
58534;BME280;44109;52.398;7.024;2023-02-03T08:26:12;101922.63;;;9.36;100.00
58534;BME280;44109;52.398;7.024;2023-02-03T08:28:40;101915.38;;;9.23;100.00
58534;BME280;44109;52.398;7.024;2023-02-03T08:31:08;101912.78;;;9.18;100.00
58534;BME280;44109;52.398;7.024;2023-02-03T08:33:36;101917.78;;;9.25;100.00
58534;BME280;44109;52.398;7.024;2023-02-03T08:36:05;101929.88;;;9.20;100.00
58534;BME280;44109;52.398;7.024;2023-02-03T08:38:34;101909.91;;;9.06;100.00
58534;BME280;44109;52.398;7.024;2023-02-03T08:41:07;101919.31;;;9.13;100.00
58534;BME280;44109;52.398;7.024;2023-02-03T08:43:36;101939.50;;;9.14;100.00
58534;BME280;44109;52.398;7.024;2023-02-03T08:46:05;101913.06;;;8.96;100.00
58534;BME280;44109;52.398;7.024;2023-02-03T08:48:35;101913.63;;;9.10;100.00
58534;BME280;44109;52.398;7.024;2023-02-03T08:51:09;101936.06;;;9.17;100.00
58534;BME280;44109;52.398;7.024;2023-02-03T08:53:38;101931.97;;;9.23;100.00
58534;BME280;44109;52.398;7.024;2023-02-03T08:56:07;101908.38;;;9.17;100.00
58534;BME280;44109;52.398;7.024;2023-02-03T08:58:36;101923.53;;;9.20;100.00
58534;BME280;44109;52.398;7.024;2023-02-03T09:01:06;101917.56;;;9.38;100.00
58534;BME280;44109;52.398;7.024;2023-02-03T09:03:35;101933.13;;;9.22;100.00
58534;BME280;44109;52.398;7.024;2023-02-03T09:06:04;101923.06;;;9.18;100.00
58534;BME280;44109;52.398;7.024;2023-02-03T09:08:33;101938.94;;;9.29;100.00
58534;BME280;44109;52.398;7.024;2023-02-03T09:11:07;101949.59;;;9.19;100.00
58534;BME280;44109;52.398;7.024;2023-02-03T09:13:35;101948.28;;;9.16;100.00
58534;BME280;44109;52.398;7.024;2023-02-03T09:16:05;101943.72;;;9.20;100.00
58534;BME280;44109;52.398;7.024;2023-02-03T09:18:33;101958.88;;;9.14;100.00
58534;BME280;44109;52.398;7.024;2023-02-03T09:21:01;101947.31;;;9.12;100.00
58534;BME280;44109;52.398;7.024;2023-02-03T09:23:29;101956.41;;;9.21;100.00
58534;BME280;44109;52.398;7.024;2023-02-03T09:26:02;101909.94;;;8.97;100.00
58534;BME280;44109;52.398;7.024;2023-02-03T09:28:30;101956.72;;;9.28;100.00
58534;BME280;44109;52.398;7.024;2023-02-03T09:30:59;101948.63;;;9.14;100.00
58534;BME280;44109;52.398;7.024;2023-02-03T09:33:27;101925.19;;;9.12;100.00
58534;BME280;44109;52.398;7.024;2023-02-03T09:35:55;101957.56;;;9.20;100.00
58534;BME280;44109;52.398;7.024;2023-02-03T09:38:25;101956.75;;;9.20;100.00
58534;BME280;44109;52.398;7.024;2023-02-03T09:40:55;101966.34;;;9.22;100.00
58534;BME280;44109;52.398;7.024;2023-02-03T09:43:31;101938.41;;;9.06;100.00
58534;BME280;44109;52.398;7.024;2023-02-03T09:46:06;101959.34;;;9.16;100.00
58534;BME280;44109;52.398;7.024;2023-02-03T09:48:47;101949.88;;;9.26;100.00
58534;BME280;44109;52.398;7.024;2023-02-03T09:51:20;101963.41;;;9.27;100.00
58534;BME280;44109;52.398;7.024;2023-02-03T09:53:56;101950.69;;;9.26;100.00
58534;BME280;44109;52.398;7.024;2023-02-03T09:56:31;101979.31;;;9.30;100.00
58534;BME280;44109;52.398;7.024;2023-02-03T09:59:02;101971.78;;;9.39;100.00
58534;BME280;44109;52.398;7.024;2023-02-03T10:01:46;101994.47;;;9.33;100.00
58534;BME280;44109;52.398;7.024;2023-02-03T10:04:24;101993.84;;;9.27;100.00
58534;BME280;44109;52.398;7.024;2023-02-03T10:07:08;101977.06;;;9.32;100.00
58534;BME280;44109;52.398;7.024;2023-02-03T10:09:49;101970.16;;;9.38;100.00
58534;BME280;44109;52.398;7.024;2023-02-03T10:12:47;102003.41;;;9.38;100.00
58534;BME280;44109;52.398;7.024;2023-02-03T10:15:47;102005.97;;;9.44;100.00
58534;BME280;44109;52.398;7.024;2023-02-03T10:18:40;102001.91;;;9.50;100.00
58534;BME280;44109;52.398;7.024;2023-02-03T10:21:18;102019.19;;;9.47;100.00
58534;BME280;44109;52.398;7.024;2023-02-03T10:23:59;101998.28;;;9.49;100.00
58534;BME280;44109;52.398;7.024;2023-02-03T10:26:30;102004.03;;;9.44;100.00
58534;BME280;44109;52.398;7.024;2023-02-03T10:29:02;102005.72;;;9.36;100.00
58534;BME280;44109;52.398;7.024;2023-02-03T10:31:35;102022.31;;;9.36;100.00
58534;BME280;44109;52.398;7.024;2023-02-03T10:34:09;102017.13;;;9.26;100.00
58534;BME280;44109;52.398;7.024;2023-02-03T10:36:51;102013.94;;;9.07;100.00
58534;BME280;44109;52.398;7.024;2023-02-03T10:39:30;102042.25;;;9.12;100.00
58534;BME280;44109;52.398;7.024;2023-02-03T10:42:03;102046.34;;;9.06;100.00
58534;BME280;44109;52.398;7.024;2023-02-03T10:44:37;102042.13;;;9.09;100.00
58534;BME280;44109;52.398;7.024;2023-02-03T10:47:16;102055.81;;;8.97;100.00
58534;BME280;44109;52.398;7.024;2023-02-03T10:50:03;102055.00;;;8.96;100.00
58534;BME280;44109;52.398;7.024;2023-02-03T10:52:34;102056.44;;;8.94;100.00
58534;BME280;44109;52.398;7.024;2023-02-03T10:55:05;102058.25;;;8.89;100.00
58534;BME280;44109;52.398;7.024;2023-02-03T10:57:34;102088.22;;;8.87;100.00
58534;BME280;44109;52.398;7.024;2023-02-03T11:00:18;102074.38;;;8.87;100.00
58534;BME280;44109;52.398;7.024;2023-02-03T11:03:05;102071.25;;;8.98;100.00
58534;BME280;44109;52.398;7.024;2023-02-03T11:05:42;102079.09;;;8.96;100.00
58534;BME280;44109;52.398;7.024;2023-02-03T11:08:14;102088.03;;;9.01;100.00
58534;BME280;44109;52.398;7.024;2023-02-03T11:10:42;102083.47;;;8.97;100.00
58534;BME280;44109;52.398;7.024;2023-02-03T11:13:12;102053.53;;;8.90;100.00
58534;BME280;44109;52.398;7.024;2023-02-03T11:15:50;102079.22;;;9.08;100.00
58534;BME280;44109;52.398;7.024;2023-02-03T11:18:35;102063.44;;;9.08;100.00
58534;BME280;44109;52.398;7.024;2023-02-03T11:21:23;102069.13;;;9.12;100.00
58534;BME280;44109;52.398;7.024;2023-02-03T11:23:59;102049.78;;;8.95;100.00
58534;BME280;44109;52.398;7.024;2023-02-03T11:26:32;102100.09;;;9.05;100.00
58534;BME280;44109;52.398;7.024;2023-02-03T11:29:04;102084.59;;;9.13;100.00
58534;BME280;44109;52.398;7.024;2023-02-03T11:31:35;102093.56;;;9.10;100.00
58534;BME280;44109;52.398;7.024;2023-02-03T11:34:06;102097.59;;;9.12;100.00
58534;BME280;44109;52.398;7.024;2023-02-03T11:36:42;102102.50;;;9.15;100.00
58534;BME280;44109;52.398;7.024;2023-02-03T11:39:25;102100.53;;;9.16;100.00
58534;BME280;44109;52.398;7.024;2023-02-03T11:41:54;102096.78;;;9.21;100.00
58534;BME280;44109;52.398;7.024;2023-02-03T11:44:24;102103.63;;;9.23;100.00
58534;BME280;44109;52.398;7.024;2023-02-03T11:46:56;102108.34;;;9.31;100.00
58534;BME280;44109;52.398;7.024;2023-02-03T11:49:51;102087.34;;;9.22;100.00
58534;BME280;44109;52.398;7.024;2023-02-03T11:52:52;102105.41;;;9.36;100.00
58534;BME280;44109;52.398;7.024;2023-02-03T11:55:52;102113.38;;;9.38;100.00
58534;BME280;44109;52.398;7.024;2023-02-03T11:58:56;102139.28;;;9.33;100.00
58534;BME280;44109;52.398;7.024;2023-02-03T12:04:48;102097.56;;;9.38;100.00
58534;BME280;44109;52.398;7.024;2023-02-03T12:07:47;102120.22;;;9.40;100.00
58534;BME280;44109;52.398;7.024;2023-02-03T12:10:34;102144.47;;;9.44;100.00
58534;BME280;44109;52.398;7.024;2023-02-03T12:13:21;102134.06;;;9.40;100.00
58534;BME280;44109;52.398;7.024;2023-02-03T12:16:16;102088.84;;;9.10;100.00
58534;BME280;44109;52.398;7.024;2023-02-03T12:19:06;102145.81;;;9.20;100.00
58534;BME280;44109;52.398;7.024;2023-02-03T12:21:44;102139.44;;;9.28;100.00
58534;BME280;44109;52.398;7.024;2023-02-03T12:24:28;102134.75;;;9.20;100.00
58534;BME280;44109;52.398;7.024;2023-02-03T12:27:13;102131.50;;;9.18;100.00
58534;BME280;44109;52.398;7.024;2023-02-03T12:29:54;102128.06;;;9.12;100.00
58534;BME280;44109;52.398;7.024;2023-02-03T12:32:33;102136.22;;;9.18;100.00
58534;BME280;44109;52.398;7.024;2023-02-03T12:35:12;102133.13;;;9.02;100.00
58534;BME280;44109;52.398;7.024;2023-02-03T12:37:49;102142.06;;;9.07;100.00
58534;BME280;44109;52.398;7.024;2023-02-03T12:40:28;102147.59;;;9.07;100.00
58534;BME280;44109;52.398;7.024;2023-02-03T12:43:19;102146.00;;;8.98;100.00
58534;BME280;44109;52.398;7.024;2023-02-03T12:45:54;102132.16;;;8.98;100.00
58534;BME280;44109;52.398;7.024;2023-02-03T12:48:39;102147.31;;;8.92;100.00
58534;BME280;44109;52.398;7.024;2023-02-03T12:51:17;102149.72;;;9.02;100.00
58534;BME280;44109;52.398;7.024;2023-02-03T12:54:02;102142.56;;;9.01;100.00
58534;BME280;44109;52.398;7.024;2023-02-03T12:56:42;102114.41;;;8.90;100.00
58534;BME280;44109;52.398;7.024;2023-02-03T12:59:18;102127.59;;;8.93;100.00
58534;BME280;44109;52.398;7.024;2023-02-03T13:01:53;102117.97;;;8.99;100.00
58534;BME280;44109;52.398;7.024;2023-02-03T13:04:31;102119.63;;;8.92;100.00
58534;BME280;44109;52.398;7.024;2023-02-03T13:07:13;102116.53;;;8.84;100.00
58534;BME280;44109;52.398;7.024;2023-02-03T13:09:53;102132.97;;;8.89;100.00
58534;BME280;44109;52.398;7.024;2023-02-03T13:12:30;102129.22;;;8.85;100.00
58534;BME280;44109;52.398;7.024;2023-02-03T13:15:14;102141.94;;;8.86;100.00
58534;BME280;44109;52.398;7.024;2023-02-03T13:17:53;102157.56;;;8.82;100.00
58534;BME280;44109;52.398;7.024;2023-02-03T13:20:27;102161.59;;;8.85;100.00
58534;BME280;44109;52.398;7.024;2023-02-03T13:22:59;102151.22;;;8.82;100.00